Terminal Aerodrome Forecast
Issued by NWS

Home | Current Version | Previous Version | Text Only | Print | Product List | Glossary On
Versions: 1 2 3 4 5 6 7 8 9 10 11 12 13 14 15 16 17 18 19
305
FTUS43 KIWX 230017 RRA
TAFSBN
TAF
KSBN 230017Z 2300/2324 22012KT P6SM VCSH BKN080
     FM230500 21006KT P6SM VCSH OVC070
     FM232300 08005KT P6SM OVC050=

USA.gov is the U.S. government's official web portal to all federal, state and local government web resources and services.